sensor_id;sensor_type;location;lat;lon;timestamp;temperature;humidity
26982;DHT22;14533;50.848;4.380;2022-12-17T00:01:27;0.80;99.90
26982;DHT22;14533;50.848;4.380;2022-12-17T00:04:12;0.70;99.90
26982;DHT22;14533;50.848;4.380;2022-12-17T00:06:56;0.90;99.90
26982;DHT22;14533;50.848;4.380;2022-12-17T00:09:40;1.20;99.90
26982;DHT22;14533;50.848;4.380;2022-12-17T00:12:24;1.20;99.90
26982;DHT22;14533;50.848;4.380;2022-12-17T00:15:08;1.10;99.90
26982;DHT22;14533;50.848;4.380;2022-12-17T00:18:09;1.10;99.90
26982;DHT22;14533;50.848;4.380;2022-12-17T00:20:58;1.20;99.90
26982;DHT22;14533;50.848;4.380;2022-12-17T00:23:44;1.10;99.90
26982;DHT22;14533;50.848;4.380;2022-12-17T00:26:29;1.40;99.90
26982;DHT22;14533;50.848;4.380;2022-12-17T00:29:13;1.80;99.90
26982;DHT22;14533;50.848;4.380;2022-12-17T00:31:57;1.70;99.90
26982;DHT22;14533;50.848;4.380;2022-12-17T00:34:42;1.60;99.90
26982;DHT22;14533;50.848;4.380;2022-12-17T00:37:26;1.50;99.90
26982;DHT22;14533;50.848;4.380;2022-12-17T00:40:10;1.60;99.90
26982;DHT22;14533;50.848;4.380;2022-12-17T00:43:04;1.50;99.90
26982;DHT22;14533;50.848;4.380;2022-12-17T00:45:49;1.40;99.90
26982;DHT22;14533;50.848;4.380;2022-12-17T00:48:33;1.30;99.90
26982;DHT22;14533;50.848;4.380;2022-12-17T00:51:17;1.40;99.90
26982;DHT22;14533;50.848;4.380;2022-12-17T00:54:01;1.30;99.90
26982;DHT22;14533;50.848;4.380;2022-12-17T00:56:45;1.30;99.90
26982;DHT22;14533;50.848;4.380;2022-12-17T00:59:29;1.20;99.90
26982;DHT22;14533;50.848;4.380;2022-12-17T01:02:13;1.30;99.90
26982;DHT22;14533;50.848;4.380;2022-12-17T01:04:58;1.20;99.90
26982;DHT22;14533;50.848;4.380;2022-12-17T01:07:44;1.10;99.90
26982;DHT22;14533;50.848;4.380;2022-12-17T01:10:28;0.90;99.90
26982;DHT22;14533;50.848;4.380;2022-12-17T01:13:14;1.00;99.90
26982;DHT22;14533;50.848;4.380;2022-12-17T01:16:11;1.00;99.90
26982;DHT22;14533;50.848;4.380;2022-12-17T01:18:56;1.00;99.90
26982;DHT22;14533;50.848;4.380;2022-12-17T01:21:40;1.00;99.90
26982;DHT22;14533;50.848;4.380;2022-12-17T01:24:25;1.10;99.90
26982;DHT22;14533;50.848;4.380;2022-12-17T01:27:09;1.00;99.90
26982;DHT22;14533;50.848;4.380;2022-12-17T01:29:54;1.00;99.90
26982;DHT22;14533;50.848;4.380;2022-12-17T01:32:38;1.10;99.90
26982;DHT22;14533;50.848;4.380;2022-12-17T01:35:24;1.20;99.90
26982;DHT22;14533;50.848;4.380;2022-12-17T01:38:13;1.20;99.90
26982;DHT22;14533;50.848;4.380;2022-12-17T01:40:58;1.00;99.90
26982;DHT22;14533;50.848;4.380;2022-12-17T01:43:42;1.10;99.90
26982;DHT22;14533;50.848;4.380;2022-12-17T01:46:32;1.10;99.90
26982;DHT22;14533;50.848;4.380;2022-12-17T01:49:17;1.10;99.90
26982;DHT22;14533;50.848;4.380;2022-12-17T01:52:02;1.30;99.90
26982;DHT22;14533;50.848;4.380;2022-12-17T01:54:47;1.30;99.90
26982;DHT22;14533;50.848;4.380;2022-12-17T01:57:33;1.30;99.90
26982;DHT22;14533;50.848;4.380;2022-12-17T02:00:18;1.20;99.90
26982;DHT22;14533;50.848;4.380;2022-12-17T02:03:03;1.20;99.90
26982;DHT22;14533;50.848;4.380;2022-12-17T02:12:04;1.20;99.90
26982;DHT22;14533;50.848;4.380;2022-12-17T02:17:52;0.90;99.90
26982;DHT22;14533;50.848;4.380;2022-12-17T02:20:43;0.80;99.90
26982;DHT22;14533;50.848;4.380;2022-12-17T02:29:27;0.30;99.90
26982;DHT22;14533;50.848;4.380;2022-12-17T02:32:13;0.30;99.90
26982;DHT22;14533;50.848;4.380;2022-12-17T02:35:00;0.20;99.90
26982;DHT22;14533;50.848;4.380;2022-12-17T02:37:49;0.20;99.90
26982;DHT22;14533;50.848;4.380;2022-12-17T02:40:35;0.20;99.90
26982;DHT22;14533;50.848;4.380;2022-12-17T02:43:21;0.30;99.90
26982;DHT22;14533;50.848;4.380;2022-12-17T02:46:07;0.30;99.90
26982;DHT22;14533;50.848;4.380;2022-12-17T02:48:51;0.20;99.90
26982;DHT22;14533;50.848;4.380;2022-12-17T02:51:35;0.10;99.90
26982;DHT22;14533;50.848;4.380;2022-12-17T02:54:20;0.00;99.90
26982;DHT22;14533;50.848;4.380;2022-12-17T02:57:04;0.00;99.90
26982;DHT22;14533;50.848;4.380;2022-12-17T02:59:58;0.00;99.90
26982;DHT22;14533;50.848;4.380;2022-12-17T03:02:43;0.10;99.90
26982;DHT22;14533;50.848;4.380;2022-12-17T03:05:27;0.20;99.90
26982;DHT22;14533;50.848;4.380;2022-12-17T03:08:11;0.20;99.90
26982;DHT22;14533;50.848;4.380;2022-12-17T03:10:56;0.20;99.90
26982;DHT22;14533;50.848;4.380;2022-12-17T03:13:41;0.30;99.90
26982;DHT22;14533;50.848;4.380;2022-12-17T03:16:25;0.40;99.90
26982;DHT22;14533;50.848;4.380;2022-12-17T03:19:09;0.50;99.90
26982;DHT22;14533;50.848;4.380;2022-12-17T03:21:53;0.50;99.90
26982;DHT22;14533;50.848;4.380;2022-12-17T03:24:39;0.30;99.90
26982;DHT22;14533;50.848;4.380;2022-12-17T03:27:23;0.10;99.90
26982;DHT22;14533;50.848;4.380;2022-12-17T03:30:08;0.10;99.90
26982;DHT22;14533;50.848;4.380;2022-12-17T03:32:52;0.10;99.90
26982;DHT22;14533;50.848;4.380;2022-12-17T03:35:36;0.20;99.90
26982;DHT22;14533;50.848;4.380;2022-12-17T03:38:20;0.20;99.90
26982;DHT22;14533;50.848;4.380;2022-12-17T03:41:04;0.10;99.90
26982;DHT22;14533;50.848;4.380;2022-12-17T03:43:48;0.00;99.90
26982;DHT22;14533;50.848;4.380;2022-12-17T03:46:32;-0.10;99.90
26982;DHT22;14533;50.848;4.380;2022-12-17T03:49:16;0.00;99.90
26982;DHT22;14533;50.848;4.380;2022-12-17T03:52:00;-0.10;99.90
26982;DHT22;14533;50.848;4.380;2022-12-17T03:54:44;-0.10;99.90
26982;DHT22;14533;50.848;4.380;2022-12-17T03:57:28;-0.10;99.90
26982;DHT22;14533;50.848;4.380;2022-12-17T04:00:12;-0.10;99.90
26982;DHT22;14533;50.848;4.380;2022-12-17T04:02:57;0.00;99.90
26982;DHT22;14533;50.848;4.380;2022-12-17T04:05:41;0.00;99.90
26982;DHT22;14533;50.848;4.380;2022-12-17T04:08:25;-0.20;99.90
26982;DHT22;14533;50.848;4.380;2022-12-17T04:11:09;-0.30;99.90
26982;DHT22;14533;50.848;4.380;2022-12-17T04:13:53;-0.40;99.90
26982;DHT22;14533;50.848;4.380;2022-12-17T04:16:37;-0.20;99.90
26982;DHT22;14533;50.848;4.380;2022-12-17T04:19:22;0.00;99.90
26982;DHT22;14533;50.848;4.380;2022-12-17T04:22:06;0.40;99.90
26982;DHT22;14533;50.848;4.380;2022-12-17T04:24:50;0.30;99.90
26982;DHT22;14533;50.848;4.380;2022-12-17T04:27:34;0.40;99.90
26982;DHT22;14533;50.848;4.380;2022-12-17T04:30:18;0.50;99.90
26982;DHT22;14533;50.848;4.380;2022-12-17T04:33:03;0.60;99.90
26982;DHT22;14533;50.848;4.380;2022-12-17T04:35:48;0.40;99.90
26982;DHT22;14533;50.848;4.380;2022-12-17T04:38:32;0.20;99.90
26982;DHT22;14533;50.848;4.380;2022-12-17T04:41:16;0.30;99.90
26982;DHT22;14533;50.848;4.380;2022-12-17T04:44:00;0.20;99.90
26982;DHT22;14533;50.848;4.380;2022-12-17T04:46:44;0.20;99.90
26982;DHT22;14533;50.848;4.380;2022-12-17T04:49:28;0.20;99.90
26982;DHT22;14533;50.848;4.380;2022-12-17T04:52:12;0.40;99.90
26982;DHT22;14533;50.848;4.380;2022-12-17T04:54:56;0.70;99.90
26982;DHT22;14533;50.848;4.380;2022-12-17T04:57:40;0.70;99.90
26982;DHT22;14533;50.848;4.380;2022-12-17T05:00:24;0.70;99.90
26982;DHT22;14533;50.848;4.380;2022-12-17T05:03:11;0.40;99.90
26982;DHT22;14533;50.848;4.380;2022-12-17T05:05:56;0.10;99.90
26982;DHT22;14533;50.848;4.380;2022-12-17T05:08:40;0.00;99.90
26982;DHT22;14533;50.848;4.380;2022-12-17T05:11:25;-0.10;99.90
26982;DHT22;14533;50.848;4.380;2022-12-17T05:14:09;0.20;99.90
26982;DHT22;14533;50.848;4.380;2022-12-17T05:16:53;0.40;99.90
26982;DHT22;14533;50.848;4.380;2022-12-17T05:19:39;0.30;99.90
26982;DHT22;14533;50.848;4.380;2022-12-17T05:22:23;0.40;99.90
26982;DHT22;14533;50.848;4.380;2022-12-17T05:25:07;0.20;99.90
26982;DHT22;14533;50.848;4.380;2022-12-17T05:27:52;0.20;99.90
26982;DHT22;14533;50.848;4.380;2022-12-17T05:30:36;0.10;99.90
26982;DHT22;14533;50.848;4.380;2022-12-17T05:33:22;0.10;99.90
26982;DHT22;14533;50.848;4.380;2022-12-17T05:36:06;0.10;99.90
26982;DHT22;14533;50.848;4.380;2022-12-17T05:38:52;0.10;99.90
26982;DHT22;14533;50.848;4.380;2022-12-17T05:41:36;0.00;99.90
26982;DHT22;14533;50.848;4.380;2022-12-17T05:44:20;-0.10;99.90
26982;DHT22;14533;50.848;4.380;2022-12-17T05:47:05;0.30;99.90
26982;DHT22;14533;50.848;4.380;2022-12-17T05:49:49;0.50;99.90
26982;DHT22;14533;50.848;4.380;2022-12-17T05:52:33;0.50;99.90
26982;DHT22;14533;50.848;4.380;2022-12-17T05:55:28;0.50;99.90
26982;DHT22;14533;50.848;4.380;2022-12-17T05:58:12;0.60;99.90
26982;DHT22;14533;50.848;4.380;2022-12-17T06:01:02;0.70;99.90
26982;DHT22;14533;50.848;4.380;2022-12-17T06:03:47;0.50;99.90
26982;DHT22;14533;50.848;4.380;2022-12-17T06:06:32;0.50;99.90
26982;DHT22;14533;50.848;4.380;2022-12-17T06:09:17;0.60;99.90
26982;DHT22;14533;50.848;4.380;2022-12-17T06:12:01;0.50;99.90
26982;DHT22;14533;50.848;4.380;2022-12-17T06:14:46;0.50;99.90
26982;DHT22;14533;50.848;4.380;2022-12-17T06:17:30;0.50;99.90
26982;DHT22;14533;50.848;4.380;2022-12-17T06:20:14;0.30;99.90
26982;DHT22;14533;50.848;4.380;2022-12-17T06:23:03;0.30;99.90
26982;DHT22;14533;50.848;4.380;2022-12-17T06:25:47;0.30;99.90
26982;DHT22;14533;50.848;4.380;2022-12-17T06:28:31;0.20;99.90
26982;DHT22;14533;50.848;4.380;2022-12-17T06:31:16;0.10;99.90
26982;DHT22;14533;50.848;4.380;2022-12-17T06:34:01;0.00;99.90
26982;DHT22;14533;50.848;4.380;2022-12-17T06:36:45;-0.10;99.90
26982;DHT22;14533;50.848;4.380;2022-12-17T06:39:29;-0.10;99.90
26982;DHT22;14533;50.848;4.380;2022-12-17T06:42:13;-0.20;99.90
26982;DHT22;14533;50.848;4.380;2022-12-17T06:44:57;0.00;99.90
26982;DHT22;14533;50.848;4.380;2022-12-17T06:47:41;-0.10;99.90
26982;DHT22;14533;50.848;4.380;2022-12-17T06:50:25;-0.10;99.90
26982;DHT22;14533;50.848;4.380;2022-12-17T06:53:09;0.20;99.90
26982;DHT22;14533;50.848;4.380;2022-12-17T06:55:57;0.40;99.90
26982;DHT22;14533;50.848;4.380;2022-12-17T06:58:41;0.30;99.90
26982;DHT22;14533;50.848;4.380;2022-12-17T07:01:25;0.40;99.90
26982;DHT22;14533;50.848;4.380;2022-12-17T07:04:10;0.40;99.90
26982;DHT22;14533;50.848;4.380;2022-12-17T07:06:54;0.30;99.90
26982;DHT22;14533;50.848;4.380;2022-12-17T07:09:39;-0.10;99.90
26982;DHT22;14533;50.848;4.380;2022-12-17T07:12:23;-0.20;99.90
26982;DHT22;14533;50.848;4.380;2022-12-17T07:15:07;-0.40;99.90
26982;DHT22;14533;50.848;4.380;2022-12-17T07:18:01;-0.40;99.90
26982;DHT22;14533;50.848;4.380;2022-12-17T07:20:46;-0.50;99.90
26982;DHT22;14533;50.848;4.380;2022-12-17T07:23:32;-0.50;99.90
26982;DHT22;14533;50.848;4.380;2022-12-17T07:26:17;-0.50;99.90
26982;DHT22;14533;50.848;4.380;2022-12-17T07:29:01;-0.40;99.90
26982;DHT22;14533;50.848;4.380;2022-12-17T07:31:46;-0.30;99.90
26982;DHT22;14533;50.848;4.380;2022-12-17T07:34:30;-0.20;99.90
26982;DHT22;14533;50.848;4.380;2022-12-17T07:37:14;-0.30;99.90
26982;DHT22;14533;50.848;4.380;2022-12-17T07:39:58;-0.20;99.90
26982;DHT22;14533;50.848;4.380;2022-12-17T07:42:44;-0.10;99.90
26982;DHT22;14533;50.848;4.380;2022-12-17T07:45:28;-0.10;99.90
26982;DHT22;14533;50.848;4.380;2022-12-17T07:48:12;-0.20;99.90
26982;DHT22;14533;50.848;4.380;2022-12-17T07:50:56;-0.20;99.90
26982;DHT22;14533;50.848;4.380;2022-12-17T07:53:41;-0.20;99.90
26982;DHT22;14533;50.848;4.380;2022-12-17T07:56:25;-0.40;99.90
26982;DHT22;14533;50.848;4.380;2022-12-17T07:59:11;-0.50;99.90
26982;DHT22;14533;50.848;4.380;2022-12-17T08:01:56;-0.50;99.90
26982;DHT22;14533;50.848;4.380;2022-12-17T08:04:41;-0.40;99.90
26982;DHT22;14533;50.848;4.380;2022-12-17T08:07:25;-0.40;99.90
26982;DHT22;14533;50.848;4.380;2022-12-17T08:10:10;-0.30;99.90
26982;DHT22;14533;50.848;4.380;2022-12-17T08:13:00;0.00;99.90
26982;DHT22;14533;50.848;4.380;2022-12-17T08:15:45;-0.20;99.90
26982;DHT22;14533;50.848;4.380;2022-12-17T08:18:29;-0.30;99.90
26982;DHT22;14533;50.848;4.380;2022-12-17T08:21:14;-0.30;99.90
26982;DHT22;14533;50.848;4.380;2022-12-17T08:23:58;-0.30;99.90
26982;DHT22;14533;50.848;4.380;2022-12-17T08:26:43;-0.40;99.90
26982;DHT22;14533;50.848;4.380;2022-12-17T08:29:28;-0.60;99.90
26982;DHT22;14533;50.848;4.380;2022-12-17T08:32:12;-0.60;99.90
26982;DHT22;14533;50.848;4.380;2022-12-17T08:35:04;-0.40;99.90
26982;DHT22;14533;50.848;4.380;2022-12-17T08:37:49;-0.50;99.90
26982;DHT22;14533;50.848;4.380;2022-12-17T08:40:33;-0.50;99.90
26982;DHT22;14533;50.848;4.380;2022-12-17T08:43:17;-0.40;99.90
26982;DHT22;14533;50.848;4.380;2022-12-17T08:46:01;-0.40;99.90
26982;DHT22;14533;50.848;4.380;2022-12-17T08:48:45;-0.40;99.90
26982;DHT22;14533;50.848;4.380;2022-12-17T08:51:30;-0.50;99.90
26982;DHT22;14533;50.848;4.380;2022-12-17T08:54:14;-0.50;99.90
26982;DHT22;14533;50.848;4.380;2022-12-17T08:56:59;-0.40;99.90
26982;DHT22;14533;50.848;4.380;2022-12-17T08:59:43;-0.40;99.90
26982;DHT22;14533;50.848;4.380;2022-12-17T09:02:27;-0.30;99.90
26982;DHT22;14533;50.848;4.380;2022-12-17T09:05:11;-0.30;99.90
26982;DHT22;14533;50.848;4.380;2022-12-17T09:08:04;-0.20;99.90
26982;DHT22;14533;50.848;4.380;2022-12-17T09:10:49;-0.20;99.90
26982;DHT22;14533;50.848;4.380;2022-12-17T09:13:33;-0.10;99.90
26982;DHT22;14533;50.848;4.380;2022-12-17T09:16:18;-0.20;99.90
26982;DHT22;14533;50.848;4.380;2022-12-17T09:19:02;-0.20;99.90
26982;DHT22;14533;50.848;4.380;2022-12-17T09:21:46;-0.10;99.90
26982;DHT22;14533;50.848;4.380;2022-12-17T09:24:30;-0.20;99.90
26982;DHT22;14533;50.848;4.380;2022-12-17T09:27:14;-0.20;99.90
26982;DHT22;14533;50.848;4.380;2022-12-17T09:29:59;-0.40;99.90
26982;DHT22;14533;50.848;4.380;2022-12-17T09:32:45;-0.50;99.90
26982;DHT22;14533;50.848;4.380;2022-12-17T09:35:29;-0.50;99.90
26982;DHT22;14533;50.848;4.380;2022-12-17T09:38:14;-0.50;99.90
26982;DHT22;14533;50.848;4.380;2022-12-17T09:41:04;-0.60;99.90
26982;DHT22;14533;50.848;4.380;2022-12-17T09:44:05;-0.60;99.90
26982;DHT22;14533;50.848;4.380;2022-12-17T09:47:02;-0.60;99.90
26982;DHT22;14533;50.848;4.380;2022-12-17T09:49:51;-0.50;99.90
26982;DHT22;14533;50.848;4.380;2022-12-17T09:52:38;-0.40;99.90
26982;DHT22;14533;50.848;4.380;2022-12-17T09:55:27;-0.40;99.90
26982;DHT22;14533;50.848;4.380;2022-12-17T09:58:21;-0.30;99.90
26982;DHT22;14533;50.848;4.380;2022-12-17T10:01:16;-0.30;99.90
26982;DHT22;14533;50.848;4.380;2022-12-17T10:04:03;-0.40;99.90
26982;DHT22;14533;50.848;4.380;2022-12-17T10:06:49;-0.40;99.90
26982;DHT22;14533;50.848;4.380;2022-12-17T10:09:35;-0.30;99.90
26982;DHT22;14533;50.848;4.380;2022-12-17T10:12:20;-0.10;99.90
26982;DHT22;14533;50.848;4.380;2022-12-17T10:15:06;-0.10;99.90
26982;DHT22;14533;50.848;4.380;2022-12-17T10:17:50;-0.10;99.90
26982;DHT22;14533;50.848;4.380;2022-12-17T10:20:42;-0.10;99.90
26982;DHT22;14533;50.848;4.380;2022-12-17T10:23:31;-0.10;99.90
26982;DHT22;14533;50.848;4.380;2022-12-17T10:26:18;-0.10;99.90
26982;DHT22;14533;50.848;4.380;2022-12-17T10:29:17;-0.10;99.90
26982;DHT22;14533;50.848;4.380;2022-12-17T10:32:19;-0.10;99.90
26982;DHT22;14533;50.848;4.380;2022-12-17T10:38:11;-0.10;99.90
26982;DHT22;14533;50.848;4.380;2022-12-17T10:40:55;0.00;99.90
26982;DHT22;14533;50.848;4.380;2022-12-17T10:43:42;0.10;99.90
26982;DHT22;14533;50.848;4.380;2022-12-17T10:46:31;0.10;99.90
26982;DHT22;14533;50.848;4.380;2022-12-17T10:49:18;0.20;99.90
26982;DHT22;14533;50.848;4.380;2022-12-17T10:52:30;0.20;99.90
26982;DHT22;14533;50.848;4.380;2022-12-17T10:55:22;0.20;99.90
26982;DHT22;14533;50.848;4.380;2022-12-17T10:58:20;0.40;99.90
26982;DHT22;14533;50.848;4.380;2022-12-17T11:01:18;0.30;99.90
26982;DHT22;14533;50.848;4.380;2022-12-17T11:07:05;0.40;99.90
26982;DHT22;14533;50.848;4.380;2022-12-17T11:09:54;0.50;99.90
26982;DHT22;14533;50.848;4.380;2022-12-17T11:12:51;0.70;99.90
26982;DHT22;14533;50.848;4.380;2022-12-17T11:15:53;0.80;99.90
26982;DHT22;14533;50.848;4.380;2022-12-17T11:18:49;0.80;99.90
26982;DHT22;14533;50.848;4.380;2022-12-17T11:21:40;1.00;99.90
26982;DHT22;14533;50.848;4.380;2022-12-17T11:24:30;1.00;99.90
26982;DHT22;14533;50.848;4.380;2022-12-17T11:27:20;1.10;99.90
26982;DHT22;14533;50.848;4.380;2022-12-17T11:30:16;1.20;99.90
26982;DHT22;14533;50.848;4.380;2022-12-17T11:33:12;1.40;99.90
26982;DHT22;14533;50.848;4.380;2022-12-17T11:36:22;1.50;99.90
26982;DHT22;14533;50.848;4.380;2022-12-17T11:39:36;1.50;99.90
26982;DHT22;14533;50.848;4.380;2022-12-17T11:42:35;1.40;99.90
26982;DHT22;14533;50.848;4.380;2022-12-17T11:45:42;1.50;99.90
26982;DHT22;14533;50.848;4.380;2022-12-17T11:48:39;1.50;99.90
26982;DHT22;14533;50.848;4.380;2022-12-17T11:51:46;1.60;99.90
26982;DHT22;14533;50.848;4.380;2022-12-17T11:54:48;1.60;99.90
26982;DHT22;14533;50.848;4.380;2022-12-17T12:01:35;1.80;99.90
26982;DHT22;14533;50.848;4.380;2022-12-17T12:04:08;1.80;99.90
26982;DHT22;14533;50.848;4.380;2022-12-17T12:07:02;1.80;99.90
26982;DHT22;14533;50.848;4.380;2022-12-17T12:13:20;1.90;99.90
26982;DHT22;14533;50.848;4.380;2022-12-17T12:29:04;1.80;99.90
26982;DHT22;14533;50.848;4.380;2022-12-17T12:32:16;1.90;99.90
26982;DHT22;14533;50.848;4.380;2022-12-17T12:35:12;2.10;99.90
26982;DHT22;14533;50.848;4.380;2022-12-17T12:37:59;2.10;99.90
26982;DHT22;14533;50.848;4.380;2022-12-17T12:40:58;2.10;99.90
26982;DHT22;14533;50.848;4.380;2022-12-17T12:43:51;2.10;99.90
26982;DHT22;14533;50.848;4.380;2022-12-17T12:46:51;2.10;99.90
26982;DHT22;14533;50.848;4.380;2022-12-17T12:52:53;2.10;99.90
26982;DHT22;14533;50.848;4.380;2022-12-17T12:55:38;2.10;99.90
26982;DHT22;14533;50.848;4.380;2022-12-17T12:58:31;2.10;99.90
26982;DHT22;14533;50.848;4.380;2022-12-17T13:01:19;2.30;99.90
26982;DHT22;14533;50.848;4.380;2022-12-17T13:04:35;2.30;99.90
26982;DHT22;14533;50.848;4.380;2022-12-17T13:07:24;2.40;99.90
26982;DHT22;14533;50.848;4.380;2022-12-17T13:09:56;2.40;99.90
26982;DHT22;14533;50.848;4.380;2022-12-17T13:12:39;2.40;99.90
26982;DHT22;14533;50.848;4.380;2022-12-17T13:15:18;2.40;99.90
26982;DHT22;14533;50.848;4.380;2022-12-17T13:18:01;2.40;99.90
26982;DHT22;14533;50.848;4.380;2022-12-17T13:20:32;2.50;99.90
26982;DHT22;14533;50.848;4.380;2022-12-17T13:23:28;2.40;99.90
26982;DHT22;14533;50.848;4.380;2022-12-17T13:26:15;2.30;99.90
26982;DHT22;14533;50.848;4.380;2022-12-17T13:28:47;2.50;99.90
26982;DHT22;14533;50.848;4.380;2022-12-17T13:31:16;2.50;99.90
26982;DHT22;14533;50.848;4.380;2022-12-17T13:36:45;2.30;99.90
26982;DHT22;14533;50.848;4.380;2022-12-17T13:39:35;2.30;99.90
26982;DHT22;14533;50.848;4.380;2022-12-17T13:42:02;2.30;99.90
26982;DHT22;14533;50.848;4.380;2022-12-17T13:44:38;2.30;99.90
26982;DHT22;14533;50.848;4.380;2022-12-17T13:47:22;2.40;99.90
26982;DHT22;14533;50.848;4.380;2022-12-17T13:49:53;2.50;99.90
26982;DHT22;14533;50.848;4.380;2022-12-17T13:52:22;2.50;99.90
26982;DHT22;14533;50.848;4.380;2022-12-17T13:54:48;2.50;99.90
26982;DHT22;14533;50.848;4.380;2022-12-17T13:57:18;2.50;99.90
26982;DHT22;14533;50.848;4.380;2022-12-17T13:59:51;2.60;99.90
26982;DHT22;14533;50.848;4.380;2022-12-17T14:02:32;2.50;99.90
26982;DHT22;14533;50.848;4.380;2022-12-17T14:05:00;2.50;99.90
26982;DHT22;14533;50.848;4.380;2022-12-17T14:07:27;2.50;99.90
26982;DHT22;14533;50.848;4.380;2022-12-17T14:09:55;2.60;99.90
26982;DHT22;14533;50.848;4.380;2022-12-17T14:12:23;2.60;99.90
26982;DHT22;14533;50.848;4.380;2022-12-17T14:14:54;2.40;99.90
26982;DHT22;14533;50.848;4.380;2022-12-17T14:19:56;2.50;99.90
26982;DHT22;14533;50.848;4.380;2022-12-17T14:22:34;2.60;99.90
26982;DHT22;14533;50.848;4.380;2022-12-17T14:25:01;2.70;99.90
26982;DHT22;14533;50.848;4.380;2022-12-17T14:27:35;2.60;99.90
26982;DHT22;14533;50.848;4.380;2022-12-17T14:30:17;2.50;99.90
26982;DHT22;14533;50.848;4.380;2022-12-17T14:32:45;2.50;99.90
